This is the latest recevied weather packets stored in our database for station/object N4VTB-13. If no packets are shown the sender has not sent any weather packets the latest 10 day(s).
| Time | Temp. | Humidity | Pressure | Rain* | Wind** | Luminosity | Snow |
|---|---|---|---|---|---|---|---|
| 1777446675 | 10° C | 87% | 1025.3 hPa | 0 mm | - | 0 W/m² | - |
| 1777440076 | 10° C | 84% | 1025 hPa | 0 mm | - | 0 W/m² | - |
| 1777438276 | 10.56° C | 83% | 1024.9 hPa | 0 mm | - | 0 W/m² | - |
| 1777435876 | 10.56° C | 81% | 1024.8 hPa | 0 mm | - | 0 W/m² | - |
| 1777432296 | 11.67° C | 78% | 1024.5 hPa | 0 mm | - | 0 W/m² | - |
| 1777431075 | 11.67° C | 78% | 1024.3 hPa | 0 mm | - | 5 W/m² | - |
| 1777422075 | 12.78° C | 72% | 1023.9 hPa | 0 mm | - | 77 W/m² | - |
| 1777417277 | 12.78° C | 70% | 1023.9 hPa | 0 mm | - | 207 W/m² | - |
| 1777413077 | 12.22° C | 70% | 1024 hPa | 0 mm | - | 206 W/m² | - |
| 1777410677 | 12.22° C | 72% | 1024.4 hPa | 0 mm | - | 109 W/m² | - |
| 1777407077 | 12.22° C | 75% | 1024.3 hPa | 0 mm | - | 178 W/m² | - |
| 1777404077 | 11.67° C | 78% | 1024.2 hPa | 0 mm | - | 126 W/m² | - |
| 1777402877 | 11.11° C | 80% | 1024.1 hPa | 0 mm | - | 214 W/m² | - |
| 1777402276 | 11.11° C | 80% | 1024 hPa | 0 mm | - | 260 W/m² | - |
| 1777401076 | 10.56° C | 84% | 1024 hPa | 0 mm | - | 255 W/m² | - |
| 1777398676 | 10° C | 85% | 1023.8 hPa | 0 mm | - | 102 W/m² | - |
| 1777396876 | 9.44° C | 88% | 1023.8 hPa | 0 mm | - | 192 W/m² | - |
| 1777393876 | 8.33° C | 92% | 1023.6 hPa | 0 mm | - | 102 W/m² | - |
| 1777389076 | 8.33° C | 94% | 1023.2 hPa | 0 mm | - | 51 W/m² | - |
| 1777387876 | 7.78° C | 94% | 1023 hPa | 0 mm | - | 69 W/m² | - |
| 1777386676 | 7.78° C | 93% | 1022.8 hPa | 0 mm | - | 39 W/m² | - |
| 1777385476 | 7.78° C | 91% | 1022.8 hPa | 0 mm | - | 19 W/m² | - |
| 1777380096 | 7.78° C | 86% | 1021.6 hPa | 0 mm | - | 0 W/m² | - |
| 1777379476 | 7.78° C | 87% | 1021.5 hPa | 0 mm | - | 0 W/m² | - |
| 1777378896 | 7.22° C | 86% | 1021.4 hPa | 0 mm | - | 0 W/m² | - |
* Rain latest hour (hover to see other rain measurements)
** Current wind speed in m/s (hover to see current wind gust speed)